Time;durP1;ratioP1;P1;durP2;ratioP2;P2;SDS_P1;SDS_P2;PMS_P1;PMS_P2;Temp;Humidity;BMP_temperature;BMP_pressure;BME280_temperature;BME280_humidity;BME280_pressure;Samples;Min_cycle;Max_cycle;Signal;HPM_P1;HPM_P2
2022/12/27 07:58:38;;;;;;;4.65;2.78;;;20.50;99.90;;;;;;5153225;23;20458;-67
2022/12/27 08:01:04;;;;;;;5.30;2.60;;;20.20;99.90;;;;;;4878325;29;20079;-68
2022/12/27 08:03:30;;;;;;;;;;;19.90;99.90;;;;;;4895116;29;20354;-69
2022/12/27 08:05:56;;;;;;;7.65;2.92;;;19.80;99.90;;;;;;4883734;29;20375;-66
2022/12/27 08:08:27;;;;;;;7.10;3.10;;;19.60;99.90;;;;;;4897878;29;20037;-74
2022/12/27 08:11:31;;;;;;;7.22;3.10;;;19.40;99.90;;;;;;4892445;29;20049;-68
2022/12/27 08:13:57;;;;;;;7.78;3.40;;;19.10;99.90;;;;;;4878793;29;20079;-74
2022/12/27 08:16:25;;;;;;;10.52;3.17;;;19.00;99.90;;;;;;4888124;29;20462;-74
2022/12/27 08:18:54;;;;;;;5.45;3.05;;;19.00;99.90;;;;;;4898124;29;20093;-73
2022/12/27 08:21:38;;;;;;;8.40;3.70;;;19.00;99.90;;;;;;4898064;29;20043;-71
2022/12/27 08:24:06;;;;;;;10.57;3.70;;;19.10;99.90;;;;;;4878307;29;20044;-69
2022/12/27 08:26:32;;;;;;;12.23;4.55;;;19.20;99.90;;;;;;4877794;29;20033;-72
2022/12/27 08:28:59;;;;;;;10.88;4.18;;;19.30;99.90;;;;;;4875520;29;21777;-71
2022/12/27 08:31:25;;;;;;;17.52;6.95;;;19.30;99.90;;;;;;4871802;29;20025;-68
2022/12/27 08:33:51;;;;;;;9.05;5.50;;;19.40;99.90;;;;;;4867900;29;20032;-70
2022/12/27 08:36:39;;;;;;;10.73;5.60;;;19.40;99.90;;;;;;4878662;29;20040;-67
2022/12/27 08:39:06;;;;;;;9.60;5.47;;;19.50;99.90;;;;;;4878562;29;20061;-69
2022/12/27 08:41:38;;;;;;;8.75;5.13;;;19.60;99.90;;;;;;4873202;29;20037;-64
2022/12/27 08:44:04;;;;;;;8.25;4.50;;;19.70;99.90;;;;;;4865772;29;20064;-69
2022/12/27 08:46:31;;;;;;;8.35;4.70;;;19.80;99.90;;;;;;4879457;29;20031;-69
2022/12/27 08:48:57;;;;;;;12.30;5.00;;;19.80;99.90;;;;;;4871768;29;20092;-73
2022/12/27 08:51:23;;;;;;;7.97;4.72;;;19.60;99.90;;;;;;4877175;29;20112;-75
2022/12/27 08:53:49;;;;;;;6.10;3.97;;;19.40;99.90;;;;;;4887378;29;20062;-77
2022/12/27 08:56:15;;;;;;;9.00;5.00;;;19.40;99.90;;;;;;4899734;29;20056;-77
2022/12/27 08:58:42;;;;;;;11.43;6.60;;;19.40;99.90;;;;;;4898272;29;20568;-78
2022/12/27 09:01:10;;;;;;;12.73;5.75;;;19.50;99.90;;;;;;4899531;29;20033;-78
2022/12/27 09:03:36;;;;;;;24.27;7.60;;;19.60;99.90;;;;;;4890891;29;20434;-78
2022/12/27 09:06:16;;;;;;;11.43;5.75;;;19.60;99.90;;;;;;4872526;29;20104;-76
2022/12/27 09:08:45;;;;;;;10.60;6.00;;;19.60;99.90;;;;;;4881757;29;20124;-77
2022/12/27 09:11:16;;;;;;;11.05;5.63;;;19.80;99.90;;;;;;4881503;29;20114;-77
2022/12/27 09:13:43;;;;;;;8.88;4.82;;;19.70;99.90;;;;;;4881190;29;20036;-73
2022/12/27 09:36:07;;;;;;;11.60;6.20;;;19.60;99.90;;;;;;5131347;27;20439;-77
2022/12/27 09:38:56;;;;;;;13.35;6.45;;;19.40;99.90;;;;;;5130989;27;20023;-77
2022/12/27 09:42:14;;;;;;;10.45;6.97;;;19.20;99.90;;;;;;5130845;27;20045;-75
2022/12/27 09:44:59;;;;;;;11.48;7.00;;;18.90;99.90;;;;;;5105422;28;20044;-75
2022/12/27 09:47:52;;;;;;;12.95;6.47;;;18.60;99.90;;;;;;5110571;28;20020;-76
2022/12/27 09:50:32;;;;;;;9.73;6.10;;;18.80;99.90;;;;;;5098791;28;20479;-76
2022/12/27 09:53:35;;;;;;;9.52;5.90;;;19.10;99.90;;;;;;5109366;28;20409;-76
2022/12/27 09:56:01;;;;;;;10.75;5.88;;;19.40;99.90;;;;;;5125741;28;20027;-77
2022/12/27 09:58:33;;;;;;;10.77;5.22;;;19.40;99.90;;;;;;5129652;27;20091;-75
2022/12/27 10:01:01;;;;;;;8.95;5.40;;;19.60;99.90;;;;;;5130266;27;20016;-76
2022/12/27 10:03:32;;;;;;;11.27;5.85;;;19.50;99.90;;;;;;5121358;27;20030;-77
2022/12/27 10:06:16;;;;;;;11.77;6.05;;;19.40;99.90;;;;;;5108143;28;20046;-77
2022/12/27 10:09:03;;;;;;;10.90;5.80;;;19.50;99.90;;;;;;5109544;28;20020;-77
2022/12/27 10:11:36;;;;;;;10.85;5.85;;;19.40;99.90;;;;;;5109017;28;20493;-77
2022/12/27 10:14:49;;;;;;;9.25;6.35;;;19.20;99.90;;;;;;5109437;28;20024;-77
2022/12/27 10:17:36;;;;;;;10.25;6.57;;;19.10;99.90;;;;;;5066676;28;20061;-77
2022/12/27 10:20:35;;;;;;;11.70;6.90;;;19.40;99.90;;;;;;5052369;28;20045;-76
2022/12/27 10:23:28;;;;;;;10.05;6.07;;;19.50;99.90;;;;;;5046629;28;20067;-77
2022/12/27 10:26:20;;;;;;;12.48;7.10;;;19.70;99.90;;;;;;5046206;28;20034;-76
2022/12/27 10:28:55;;;;;;;13.52;7.15;;;20.00;99.90;;;;;;5042995;28;20459;-76
2022/12/27 10:31:23;;;;;;;11.88;7.45;;;20.00;99.90;;;;;;5054512;28;20194;-76
2022/12/27 10:34:15;;;;;;;11.93;6.80;;;20.20;99.90;;;;;;5046534;28;20040;-77
2022/12/27 10:36:44;;;;;;;12.25;6.30;;;20.20;99.90;;;;;;5054214;28;20446;-75
2022/12/27 10:39:32;;;;;;;10.15;5.72;;;20.20;99.90;;;;;;5035729;28;20112;-77
2022/12/27 10:42:29;;;;;;;9.90;5.97;;;20.20;99.90;;;;;;5031906;28;20038;-76
2022/12/27 10:45:35;;;;;;;15.38;5.65;;;20.40;99.90;;;;;;5032476;28;20052;-78
2022/12/27 10:48:22;;;;;;;15.20;6.20;;;20.50;99.90;;;;;;5048555;28;20483;-76
2022/12/27 10:50:56;;;;;;;11.15;6.03;;;20.60;99.90;;;;;;5052572;28;20017;-75
2022/12/27 10:53:46;;;;;;;13.27;6.50;;;20.80;99.90;;;;;;5057230;28;20134;-77
2022/12/27 10:56:34;;;;;;;14.02;6.97;;;20.70;99.90;;;;;;5094473;28;20397;-77
2022/12/27 10:59:16;;;;;;;14.95;7.00;;;20.50;99.90;;;;;;5094736;28;20022;-77
2022/12/27 11:01:58;;;;;;;15.27;7.10;;;20.60;99.90;;;;;;5095156;28;20024;-77
2022/12/27 11:04:27;;;;;;;11.77;6.70;;;20.60;99.90;;;;;;5094718;28;20036;-76
2022/12/27 11:07:20;;;;;;;13.68;6.50;;;20.50;99.90;;;;;;5094952;28;20016;-78
2022/12/27 11:09:46;;;;;;;12.05;6.55;;;20.70;99.90;;;;;;5094943;28;20298;-79
2022/12/27 11:12:31;;;;;;;13.82;7.30;;;20.70;99.90;;;;;;5106076;28;20478;-75
2022/12/27 11:15:01;;;;;;;12.15;7.28;;;20.80;99.90;;;;;;5114766;28;20106;-73
2022/12/27 11:17:39;;;;;;;14.27;6.72;;;20.60;99.90;;;;;;5111804;28;20023;-73
2022/12/27 11:20:31;;;;;;;9.90;6.45;;;20.60;99.90;;;;;;5110708;28;20486;-75
2022/12/27 11:23:12;;;;;;;13.35;6.53;;;20.80;99.90;;;;;;5102136;28;20028;-77
2022/12/27 11:25:57;;;;;;;9.88;6.65;;;20.90;99.90;;;;;;5105812;28;20032;-72
2022/12/27 11:28:38;;;;;;;11.80;6.57;;;21.00;99.90;;;;;;5104026;28;20027;-71
2022/12/27 11:31:15;;;;;;;10.57;6.30;;;21.10;99.90;;;;;;5111291;28;20031;-74
2022/12/27 11:33:53;;;;;;;11.40;6.72;;;21.10;99.90;;;;;;5114297;28;20012;-69
2022/12/27 11:36:29;;;;;;;13.25;6.60;;;21.10;99.90;;;;;;5113753;28;20051;-72
2022/12/27 11:38:56;;;;;;;12.68;6.90;;;21.10;99.90;;;;;;5114901;28;20023;-71
2022/12/27 11:41:29;;;;;;;10.50;6.32;;;21.00;99.90;;;;;;5115334;28;20076;-72
2022/12/27 11:44:02;;;;;;;12.30;6.07;;;21.20;99.90;;;;;;5114542;28;20505;-73
2022/12/27 11:47:02;;;;;;;11.88;6.15;;;21.20;99.90;;;;;;5112910;28;20111;-79
2022/12/27 11:49:47;;;;;;;11.82;6.30;;;21.00;99.90;;;;;;5113528;28;20028;-72
2022/12/27 11:52:40;;;;;;;11.07;6.57;;;21.10;99.90;;;;;;5113407;28;20024;-73
2022/12/27 11:55:45;;;;;;;15.07;7.03;;;20.90;99.90;;;;;;5113793;28;20073;-76
2022/12/27 11:58:54;;;;;;;15.93;8.13;;;20.90;99.90;;;;;;5094955;28;20132;-70
2022/12/27 12:01:39;;;;;;;14.52;8.48;;;20.80;99.90;;;;;;5113360;28;20035;-76
2022/12/27 12:07:36;;;;;;;13.93;7.07;;;20.70;99.90;;;;;;5095332;22;20140;-71
2022/12/27 12:10:29;;;;;;;13.57;7.45;;;20.80;99.90;;;;;;4992669;28;20137;-70
2022/12/27 12:13:23;;;;;;;10.93;6.65;;;20.70;99.90;;;;;;4994359;28;20018;-72
2022/12/27 12:16:16;;;;;;;13.10;6.65;;;20.60;99.90;;;;;;4994382;28;20034;-70
2022/12/27 12:19:24;;;;;;;15.07;7.53;;;20.60;99.90;;;;;;4995229;28;20031;-75
2022/12/27 12:22:21;;;;;;;11.70;7.35;;;20.50;99.90;;;;;;4994491;28;20116;-68
2022/12/27 12:25:09;;;;;;;11.95;7.28;;;20.30;99.90;;;;;;4994203;28;20492;-68
2022/12/27 12:28:04;;;;;;;11.27;7.60;;;20.20;99.90;;;;;;4992706;28;20026;-72
2022/12/27 12:30:36;;;;;;;12.50;8.77;;;20.30;99.90;;;;;;4990693;28;20022;-71
2022/12/27 12:33:30;;;;;;;11.35;6.75;;;20.30;99.90;;;;;;4992731;28;20106;-78
2022/12/27 12:36:15;;;;;;;10.15;7.18;;;20.40;99.90;;;;;;4992797;28;20026;-74
2022/12/27 12:39:13;;;;;;;13.68;7.15;;;20.60;99.90;;;;;;4993980;28;20157;-76
2022/12/27 12:42:30;;;;;;;14.60;7.00;;;20.60;99.90;;;;;;4937331;29;20035;-76
2022/12/27 12:45:25;;;;;;;12.50;6.68;;;20.50;99.90;;;;;;4929674;29;20516;-75
2022/12/27 12:48:10;;;;;;;13.15;6.57;;;20.60;99.90;;;;;;4928564;29;20384;-74
2022/12/27 12:51:11;;;;;;;14.57;7.30;;;20.70;99.90;;;;;;4923879;29;20471;-75
2022/12/27 12:54:02;;;;;;;11.77;6.50;;;20.70;99.90;;;;;;4951451;29;20495;-75
2022/12/27 12:56:52;;;;;;;22.45;10.32;;;20.70;99.90;;;;;;4951725;29;20062;-74
2022/12/27 12:59:49;;;;;;;29.35;11.73;;;20.50;99.90;;;;;;4952480;28;20122;-74
2022/12/27 13:02:51;;;;;;;13.90;6.85;;;20.60;99.90;;;;;;4951922;29;20041;-74
2022/12/27 13:05:44;;;;;;;11.07;6.32;;;20.60;99.90;;;;;;4951824;29;20396;-76
2022/12/27 13:08:35;;;;;;;12.35;7.40;;;20.40;99.90;;;;;;4951807;29;20047;-74
2022/12/27 13:11:25;;;;;;;13.18;7.57;;;20.40;99.90;;;;;;4951704;29;20042;-74
2022/12/27 13:14:04;;;;;;;11.65;6.38;;;20.30;99.90;;;;;;4952946;29;20062;-74
2022/12/27 13:17:00;;;;;;;8.80;5.65;;;20.40;99.90;;;;;;4952871;29;20027;-74
2022/12/27 13:19:47;;;;;;;;;;;20.50;99.90;;;;;;4984561;28;20038;-74
2022/12/27 13:22:44;;;;;;;12.63;6.43;;;20.50;99.90;;;;;;4992424;28;20368;-74
2022/12/27 13:25:29;;;;;;;14.15;6.55;;;20.40;99.90;;;;;;4993068;28;20026;-75
2022/12/27 13:28:35;;;;;;;10.40;6.28;;;20.30;99.90;;;;;;4993253;28;20105;-69
2022/12/27 13:31:23;;;;;;;11.32;6.57;;;20.40;99.90;;;;;;4981940;28;20049;-72
2022/12/27 13:34:12;;;;;;;11.90;6.68;;;20.30;99.90;;;;;;4992408;28;20152;-69
2022/12/27 13:37:12;;;;;;;12.65;6.63;;;20.00;99.90;;;;;;4992814;28;20102;-71
2022/12/27 13:40:00;;;;;;;11.90;6.97;;;20.00;99.90;;;;;;4990727;28;20026;-67
2022/12/27 13:42:35;;;;;;;16.70;7.20;;;20.10;99.90;;;;;;4991301;28;20114;-68
2022/12/27 13:45:16;;;;;;;12.35;5.90;;;20.00;99.90;;;;;;4992163;28;20077;-71
2022/12/27 13:48:04;;;;;;;12.43;6.90;;;20.10;99.90;;;;;;4992473;28;20471;-72
2022/12/27 13:50:46;;;;;;;15.25;6.60;;;20.20;99.90;;;;;;4990048;28;20118;-68
2022/12/27 13:53:53;;;;;;;10.38;6.13;;;20.20;99.90;;;;;;5005351;28;20058;-67
2022/12/27 13:56:39;;;;;;;13.30;5.85;;;20.10;99.90;;;;;;5007777;28;20776;-73
2022/12/27 13:59:33;;;;;;;9.20;5.85;;;20.10;99.90;;;;;;5006392;28;20041;-72
2022/12/27 14:02:20;;;;;;;11.23;5.95;;;20.10;99.90;;;;;;5006753;28;20065;-72
2022/12/27 14:05:00;;;;;;;10.35;5.78;;;20.00;99.90;;;;;;5008441;28;20041;-72
2022/12/27 14:08:09;;;;;;;12.93;7.10;;;20.00;99.90;;;;;;5010175;28;20060;-74
2022/12/27 14:10:44;;;;;;;9.95;5.55;;;20.00;99.90;;;;;;5009521;28;20042;-71
2022/12/27 14:13:11;;;;;;;15.02;5.50;;;20.10;99.90;;;;;;5013423;28;20038;-73
2022/12/27 14:15:56;;;;;;;11.82;5.90;;;20.10;99.90;;;;;;5013302;28;20025;-68
2022/12/27 14:18:37;;;;;;;11.90;5.68;;;20.10;99.90;;;;;;5009090;28;20042;-67
2022/12/27 14:21:18;;;;;;;11.52;6.15;;;20.10;99.90;;;;;;5011326;28;20443;-67
2022/12/27 14:24:08;;;;;;;9.57;5.43;;;20.00;99.90;;;;;;5013441;28;20026;-71
2022/12/27 14:27:13;;;;;;;9.05;5.53;;;19.80;99.90;;;;;;5007377;28;20022;-69
2022/12/27 14:30:18;;;;;;;12.95;6.30;;;19.80;99.90;;;;;;4936606;29;20497;-72
2022/12/27 14:32:58;;;;;;;11.13;5.75;;;19.80;99.90;;;;;;4934610;29;20043;-73
2022/12/27 14:35:49;;;;;;;8.63;5.45;;;19.80;99.90;;;;;;4920385;29;20059;-72
2022/12/27 14:38:41;;;;;;;11.88;6.38;;;19.50;99.90;;;;;;4930522;29;20036;-72
2022/12/27 14:41:55;;;;;;;11.95;7.50;;;19.40;99.90;;;;;;4935234;29;20539;-71
2022/12/27 14:44:49;;;;;;;12.20;6.25;;;19.60;99.90;;;;;;4929425;29;20111;-74
2022/12/27 14:51:26;;;;;;;10.18;6.13;;;19.20;99.90;;;;;;5115152;22;20174;-72
2022/12/27 14:57:04;;;;;;;12.55;6.57;;;19.10;99.90;;;;;;5028382;28;20049;-71
2022/12/27 15:00:25;;;;;;;12.93;6.55;;;19.00;99.90;;;;;;4995666;28;20112;-73
2022/12/27 15:03:24;;;;;;;16.17;6.90;;;19.00;99.90;;;;;;4993892;28;20193;-75
2022/12/27 15:09:27;;;;;;;13.32;6.82;;;18.80;99.90;;;;;;5069899;22;20053;-74
2022/12/27 15:12:14;;;;;;;12.15;7.03;;;18.70;99.90;;;;;;5073766;28;20040;-69
2022/12/27 15:15:02;;;;;;;20.48;9.23;;;18.60;99.90;;;;;;5073341;28;20423;-78
2022/12/27 15:18:06;;;;;;;13.60;7.50;;;18.60;99.90;;;;;;5074285;28;20028;-76
2022/12/27 15:20:44;;;;;;;18.40;11.15;;;18.60;99.90;;;;;;5074450;28;20024;-66
2022/12/27 15:23:32;;;;;;;20.98;11.15;;;18.60;99.90;;;;;;5074268;28;20047;-69
2022/12/27 15:26:30;;;;;;;17.95;10.20;;;18.40;99.90;;;;;;5074657;28;20040;-70
2022/12/27 15:29:20;;;;;;;19.20;10.60;;;18.30;99.90;;;;;;5067801;28;20029;-74
2022/12/27 15:34:40;;;;;;;21.50;11.70;;;18.20;99.90;;;;;;5084017;22;20075;-70
2022/12/27 15:38:11;;;;;;;15.73;9.35;;;18.10;99.90;;;;;;5058922;28;20115;-70
2022/12/27 15:40:55;;;;;;;16.27;9.45;;;17.80;99.90;;;;;;4979880;28;20044;-69
2022/12/27 15:43:40;;;;;;;15.88;10.27;;;17.60;99.90;;;;;;5043685;22;20072;-68
2022/12/27 15:46:47;;;;;;;18.75;9.93;;;17.40;99.90;;;;;;5067191;28;20187;-69
2022/12/27 15:49:47;;;;;;;14.27;8.43;;;17.30;99.90;;;;;;5073632;28;20060;-72
2022/12/27 15:52:31;;;;;;;15.75;9.50;;;17.30;99.90;;;;;;5069879;28;20028;-64
2022/12/27 15:55:16;;;;;;;17.52;9.40;;;17.30;99.90;;;;;;5070511;28;20020;-65
2022/12/27 15:57:49;;;;;;;15.57;9.23;;;17.30;99.90;;;;;;5038313;28;20132;-72
2022/12/27 16:00:29;;;;;;;17.75;10.40;;;17.20;99.90;;;;;;5072802;28;20032;-68
2022/12/27 16:03:00;;;;;;;15.85;10.07;;;17.20;99.90;;;;;;5055937;28;20049;-68
2022/12/27 16:05:57;;;;;;;15.10;10.00;;;17.10;99.90;;;;;;5072246;28;20044;-67
2022/12/27 16:08:28;;;;;;;16.80;10.57;;;17.00;99.90;;;;;;5053550;28;20017;-75
2022/12/27 16:11:09;;;;;;;24.77;10.55;;;16.90;99.90;;;;;;5068158;28;20492;-70
2022/12/27 16:13:42;;;;;;;14.57;10.18;;;16.90;99.90;;;;;;5072513;28;20107;-69
2022/12/27 16:16:31;;;;;;;15.43;10.77;;;16.80;99.90;;;;;;5072273;28;20495;-71
2022/12/27 16:19:07;;;;;;;18.77;11.55;;;16.80;99.90;;;;;;5072598;28;20017;-68
2022/12/27 16:21:48;;;;;;;21.77;11.55;;;16.80;99.90;;;;;;5071061;28;20051;-74
2022/12/27 16:24:26;;;;;;;20.65;11.68;;;16.70;99.90;;;;;;5052068;28;20031;-73
2022/12/27 16:27:00;;;;;;;19.10;11.52;;;16.70;99.90;;;;;;5064602;28;20056;-71
2022/12/27 16:29:34;;;;;;;22.27;10.30;;;16.70;99.90;;;;;;5071203;28;20361;-75
2022/12/27 16:32:21;;;;;;;17.65;10.82;;;16.60;99.90;;;;;;5072084;28;20502;-72
2022/12/27 16:35:10;;;;;;;19.35;12.30;;;16.60;99.90;;;;;;5095117;23;20020;-64
2022/12/27 16:37:51;;;;;;;16.38;10.50;;;16.60;99.90;;;;;;5032304;28;20040;-68
2022/12/27 16:40:43;;;;;;;20.52;10.77;;;16.50;99.90;;;;;;5031518;28;20060;-65
2022/12/27 16:43:09;;;;;;;20.05;11.85;;;16.50;99.90;;;;;;5011325;28;20109;-70
2022/12/27 16:45:38;;;;;;;19.00;12.75;;;16.50;99.90;;;;;;5010454;28;20129;-70
2022/12/27 16:48:15;;;;;;;21.05;12.25;;;16.40;99.90;;;;;;5010278;28;20088;-66
2022/12/27 16:51:01;;;;;;;20.08;12.38;;;16.40;99.90;;;;;;4993858;28;20029;-65
2022/12/27 16:53:48;;;;;;;18.67;12.20;;;16.30;99.90;;;;;;5010818;28;20131;-68
2022/12/27 16:56:22;;;;;;;20.00;11.82;;;16.30;99.90;;;;;;5009935;28;20107;-65
2022/12/27 16:58:48;;;;;;;20.38;11.85;;;16.30;99.90;;;;;;5010969;28;20048;-69
2022/12/27 17:01:33;;;;;;;19.33;11.05;;;16.30;99.90;;;;;;5010361;28;20037;-66
2022/12/27 17:04:00;;;;;;;19.40;11.88;;;16.20;99.90;;;;;;5010161;28;20558;-65
2022/12/27 17:06:26;;;;;;;19.15;10.95;;;16.20;99.90;;;;;;5009996;28;20493;-65
2022/12/27 17:09:13;;;;;;;20.20;13.00;;;16.20;99.90;;;;;;5009934;28;20030;-77
2022/12/27 17:14:29;;;;;;;19.90;13.27;;;16.10;99.90;;;;;;5117501;22;20080;-78
2022/12/27 17:21:18;;;;;;;21.40;13.68;;;16.00;99.90;;;;;;5048650;22;20443;-80
2022/12/27 17:39:58;;;;;;;18.10;11.35;;;15.70;99.90;;;;;;5025245;28;20046;-72
2022/12/27 17:46:06;;;;;;;23.42;14.13;;;15.70;99.90;;;;;;4951435;28;20069;-68
2022/12/27 17:48:33;;;;;;;23.33;15.27;;;15.60;99.90;;;;;;4954379;29;20027;-68
2022/12/27 17:51:21;;;;;;;25.35;14.90;;;15.70;99.90;;;;;;4954249;29;20114;-67
2022/12/27 17:59:49;;;;;;;18.52;13.18;;;15.70;99.90;;;;;;4950741;29;20042;-69
2022/12/27 18:02:31;;;;;;;20.45;14.20;;;15.70;99.90;;;;;;4953321;29;20027;-69
2022/12/27 18:05:00;;;;;;;22.85;14.50;;;15.60;99.90;;;;;;4953390;29;20035;-70
2022/12/27 18:07:29;;;;;;;25.40;16.08;;;15.60;99.90;;;;;;4953220;29;20031;-70
2022/12/27 18:10:05;;;;;;;24.90;15.82;;;15.60;99.90;;;;;;4953326;29;20047;-73
2022/12/27 18:12:39;;;;;;;26.30;16.73;;;15.50;99.90;;;;;;4951118;29;20023;-74
2022/12/27 18:15:08;;;;;;;28.35;16.83;;;15.50;99.90;;;;;;4954603;28;20118;-79
2022/12/27 18:17:57;;;;;;;20.25;14.77;;;15.50;99.90;;;;;;5024849;28;20026;-79
2022/12/27 18:20:26;;;;;;;24.42;14.68;;;15.50;99.90;;;;;;5023337;28;20033;-74
2022/12/27 18:23:06;;;;;;;25.20;16.23;;;15.50;99.90;;;;;;5024010;28;20013;-75
2022/12/27 18:25:52;;;;;;;24.90;15.38;;;15.40;99.90;;;;;;5022888;28;20108;-73
2022/12/27 18:28:20;;;;;;;;;;;15.40;99.90;;;;;;5024093;28;20119;-75
2022/12/27 18:31:10;;;;;;;26.70;18.55;;;15.30;99.90;;;;;;5026506;28;19905;-77
2022/12/27 18:33:59;;;;;;;29.45;19.35;;;15.30;99.90;;;;;;5023539;28;20030;-75
2022/12/27 18:37:06;;;;;;;31.83;20.48;;;15.30;99.90;;;;;;5022447;28;20018;-81
2022/12/27 18:39:39;;;;;;;25.23;15.77;;;15.30;99.90;;;;;;4959330;28;20051;-78
2022/12/27 18:42:16;;;;;;;24.00;15.75;;;15.20;99.90;;;;;;4960865;28;20546;-79
2022/12/27 18:45:08;;;;;;;18.38;11.60;;;15.20;99.90;;;;;;4961518;28;20042;-77
2022/12/27 18:47:47;;;;;;;14.52;10.10;;;15.20;99.90;;;;;;4960166;28;20051;-80
2022/12/27 18:50:19;;;;;;;18.15;10.13;;;15.20;99.90;;;;;;4962178;28;20145;-75
2022/12/27 18:52:45;;;;;;;18.35;11.13;;;15.30;99.90;;;;;;4962837;28;20035;-74
2022/12/27 18:55:19;;;;;;;18.05;10.77;;;15.40;99.90;;;;;;4959582;28;20039;-75
2022/12/27 18:57:46;;;;;;;16.92;10.80;;;15.60;99.90;;;;;;4966882;28;20113;-72
2022/12/27 19:00:26;;;;;;;18.95;11.52;;;15.70;99.90;;;;;;4972303;28;20039;-73
2022/12/27 19:03:13;;;;;;;18.65;11.18;;;15.70;99.90;;;;;;4952975;29;20043;-74
2022/12/27 19:05:55;;;;;;;17.50;11.10;;;15.70;99.90;;;;;;4953021;29;20534;-74
2022/12/27 19:08:23;;;;;;;15.82;11.80;;;15.70;99.90;;;;;;4960410;28;20030;-73
2022/12/27 19:10:50;;;;;;;16.83;10.93;;;15.70;99.90;;;;;;4956965;28;20038;-71
2022/12/27 19:13:26;;;;;;;17.27;11.20;;;15.80;99.90;;;;;;4988406;28;20485;-73
2022/12/27 19:15:53;;;;;;;21.10;13.07;;;15.70;99.90;;;;;;5017998;28;20121;-73
2022/12/27 19:18:27;;;;;;;25.67;15.15;;;15.80;99.90;;;;;;5019200;28;20013;-72
2022/12/27 19:21:01;;;;;;;18.48;11.38;;;15.70;99.90;;;;;;5024605;28;20053;-71
2022/12/27 19:23:36;;;;;;;14.52;9.68;;;15.70;99.90;;;;;;5025921;28;20033;-71
2022/12/27 19:26:19;;;;;;;15.73;10.63;;;15.70;99.90;;;;;;5026053;28;20087;-73
2022/12/27 19:28:57;;;;;;;19.02;11.68;;;15.60;99.90;;;;;;5023630;28;20018;-72
2022/12/27 19:31:25;;;;;;;18.75;11.82;;;15.60;99.90;;;;;;5020059;28;20062;-69
2022/12/27 19:34:16;;;;;;;20.88;12.88;;;15.60;99.90;;;;;;5023198;28;20044;-74
2022/12/27 19:37:08;;;;;;;13.68;10.13;;;15.60;99.90;;;;;;5014689;28;20057;-75
2022/12/27 19:39:37;;;;;;;17.75;9.45;;;15.50;99.90;;;;;;5012571;28;20080;-74
2022/12/27 19:42:11;;;;;;;15.63;10.10;;;15.50;99.90;;;;;;5012901;28;20109;-74
2022/12/27 19:44:37;;;;;;;18.70;10.50;;;15.50;99.90;;;;;;5013519;28;20112;-74
2022/12/27 19:47:03;;;;;;;15.82;9.85;;;15.50;99.90;;;;;;5013138;28;20490;-72
2022/12/27 19:49:29;;;;;;;15.32;9.50;;;15.50;99.90;;;;;;5022591;28;20115;-75
2022/12/27 19:51:58;;;;;;;15.60;9.57;;;15.50;99.90;;;;;;5032346;28;20033;-74
2022/12/27 19:54:26;;;;;;;17.40;9.50;;;15.50;99.90;;;;;;5032301;28;20028;-74
2022/12/27 19:56:52;;;;;;;;;;;15.60;99.90;;;;;;5032938;28;20033;-75
2022/12/27 19:59:25;;;;;;;15.38;10.68;;;15.60;99.90;;;;;;5032857;28;20000;-73
2022/12/27 20:01:52;;;;;;;13.85;8.90;;;15.60;99.90;;;;;;5032700;28;20079;-73
2022/12/27 20:04:22;;;;;;;15.60;9.50;;;15.50;99.90;;;;;;5032331;28;20404;-75
2022/12/27 20:06:48;;;;;;;19.35;9.30;;;15.60;99.90;;;;;;5031290;28;20136;-68
2022/12/27 20:09:18;;;;;;;16.70;9.48;;;15.60;99.90;;;;;;5040268;28;20178;-71
2022/12/27 20:11:50;;;;;;;14.48;9.52;;;15.60;99.90;;;;;;5032070;28;20070;-75
2022/12/27 20:14:17;;;;;;;20.60;9.02;;;15.60;99.90;;;;;;5032581;28;20051;-70
2022/12/27 20:16:46;;;;;;;14.43;10.15;;;15.60;99.90;;;;;;5014407;28;20489;-71
2022/12/27 20:19:18;;;;;;;15.85;10.98;;;15.50;99.90;;;;;;5032084;28;20040;-69
2022/12/27 20:21:50;;;;;;;17.40;11.32;;;15.50;99.90;;;;;;5032484;28;20424;-70
2022/12/27 20:24:16;;;;;;;15.40;11.00;;;15.50;99.90;;;;;;5032406;28;20037;-71
2022/12/27 20:26:42;;;;;;;16.88;9.82;;;15.50;99.90;;;;;;5032014;28;20052;-73
2022/12/27 20:29:10;;;;;;;15.18;10.13;;;15.40;99.90;;;;;;5014161;28;20041;-72
2022/12/27 20:31:37;;;;;;;19.35;11.00;;;15.40;99.90;;;;;;5031726;28;20030;-74
2022/12/27 20:34:05;;;;;;;18.33;10.20;;;15.40;99.90;;;;;;5031385;28;20040;-75
2022/12/27 20:36:31;;;;;;;17.15;9.95;;;15.40;99.90;;;;;;5031789;28;20021;-70
2022/12/27 20:38:58;;;;;;;14.20;10.05;;;15.40;99.90;;;;;;4997260;28;20057;-73
2022/12/27 20:41:27;;;;;;;15.60;9.60;;;15.40;99.90;;;;;;5032092;28;20107;-74
2022/12/27 20:43:57;;;;;;;15.93;9.95;;;15.40;99.90;;;;;;5031936;28;20108;-73
2022/12/27 20:46:31;;;;;;;13.38;8.95;;;15.50;99.90;;;;;;5031517;28;20051;-72
2022/12/27 20:48:59;;;;;;;17.27;9.45;;;15.50;99.90;;;;;;5031332;28;20184;-74
2022/12/27 20:51:30;;;;;;;12.82;9.02;;;15.40;99.90;;;;;;5013796;28;20422;-73
2022/12/27 20:54:01;;;;;;;12.95;9.43;;;15.40;99.90;;;;;;5031522;28;20029;-73
2022/12/27 20:56:28;;;;;;;17.15;10.07;;;15.40;99.90;;;;;;5031602;28;20091;-72
2022/12/27 20:58:54;;;;;;;12.35;8.75;;;15.40;99.90;;;;;;5031415;28;20021;-71
2022/12/27 21:01:22;;;;;;;17.23;9.87;;;15.40;99.90;;;;;;5030638;28;20048;-76
2022/12/27 21:03:49;;;;;;;14.73;9.15;;;15.40;99.90;;;;;;5031375;28;20264;-76
2022/12/27 21:06:23;;;;;;;;;;;15.40;99.90;;;;;;5032091;28;20074;-74
2022/12/27 21:08:50;;;;;;;16.50;7.80;;;15.40;99.90;;;;;;5031141;28;19905;-72
2022/12/27 21:11:19;;;;;;;14.50;7.78;;;15.50;99.90;;;;;;5031023;28;20037;-74
2022/12/27 21:13:47;;;;;;;13.13;7.97;;;15.50;99.90;;;;;;5031707;28;20029;-71
2022/12/27 21:16:23;;;;;;;17.55;7.53;;;15.40;99.90;;;;;;5030956;28;20102;-72
2022/12/27 21:18:49;;;;;;;13.05;6.95;;;15.50;99.90;;;;;;5031436;28;20022;-72
2022/12/27 21:21:19;;;;;;;15.32;7.88;;;15.50;99.90;;;;;;5031093;28;20025;-71
2022/12/27 21:23:47;;;;;;;11.20;7.20;;;15.50;99.90;;;;;;5030355;28;20076;-73
2022/12/27 21:26:16;;;;;;;13.68;7.75;;;15.50;99.90;;;;;;5030785;28;20059;-73
2022/12/27 21:28:46;;;;;;;10.13;5.70;;;15.50;99.90;;;;;;5031259;28;20061;-72
2022/12/27 21:31:14;;;;;;;11.70;6.93;;;15.50;99.90;;;;;;5031432;28;20026;-72
2022/12/27 21:33:44;;;;;;;14.77;7.45;;;15.50;99.90;;;;;;5031386;28;20438;-73
2022/12/27 21:36:19;;;;;;;12.68;6.88;;;15.50;99.90;;;;;;5031383;28;20458;-74
2022/12/27 21:38:46;;;;;;;12.88;6.80;;;15.50;99.90;;;;;;5030881;28;20125;-73
2022/12/27 21:41:15;;;;;;;;;;;15.50;99.90;;;;;;5031337;28;20059;-72
2022/12/27 21:43:44;;;;;;;12.45;6.63;;;15.40;99.90;;;;;;5030794;28;19912;-72
2022/12/27 21:46:19;;;;;;;13.55;7.03;;;15.40;99.90;;;;;;5031205;28;20021;-73
2022/12/27 21:48:45;;;;;;;10.80;7.10;;;15.50;99.90;;;;;;5026755;28;20026;-75
2022/12/27 21:51:15;;;;;;;13.25;6.50;;;15.50;99.90;;;;;;5010825;28;20083;-74
2022/12/27 21:53:42;;;;;;;13.63;7.13;;;15.50;99.90;;;;;;5010696;28;20069;-74
2022/12/27 21:56:10;;;;;;;16.42;6.95;;;15.40;99.90;;;;;;4993054;28;20041;-72
2022/12/27 21:58:38;;;;;;;12.90;7.43;;;15.50;99.90;;;;;;5010771;28;20030;-73
2022/12/27 22:01:09;;;;;;;10.80;6.53;;;15.40;99.90;;;;;;5017498;28;20041;-73
2022/12/27 22:03:37;;;;;;;8.45;5.28;;;15.40;99.90;;;;;;5030478;28;20056;-73
2022/12/27 22:06:16;;;;;;;9.20;5.80;;;15.40;99.90;;;;;;5030400;28;20343;-72
2022/12/27 22:08:47;;;;;;;10.90;6.28;;;15.40;99.90;;;;;;5029502;28;20068;-73
2022/12/27 22:11:14;;;;;;;14.13;5.97;;;15.40;99.90;;;;;;5029437;28;20383;-73
2022/12/27 22:13:41;;;;;;;9.55;5.65;;;15.40;99.90;;;;;;5030572;28;20060;-72
2022/12/27 22:16:11;;;;;;;12.32;6.05;;;15.50;99.90;;;;;;5029685;28;20033;-74
2022/12/27 22:18:40;;;;;;;13.68;6.55;;;15.50;99.90;;;;;;5030316;28;20373;-72
2022/12/27 22:21:07;;;;;;;11.98;6.05;;;15.40;99.90;;;;;;5011956;28;20029;-72
2022/12/27 22:23:36;;;;;;;11.52;6.47;;;15.50;99.90;;;;;;5030399;28;20017;-73
2022/12/27 22:26:03;;;;;;;10.43;6.63;;;15.50;99.90;;;;;;5029820;28;20109;-73
2022/12/27 22:28:29;;;;;;;10.18;6.20;;;15.50;99.90;;;;;;5029969;28;20033;-73
2022/12/27 22:30:55;;;;;;;17.42;6.30;;;15.40;99.90;;;;;;5024383;28;20030;-75
2022/12/27 22:33:21;;;;;;;9.65;5.75;;;15.40;99.90;;;;;;5013350;28;20096;-72
2022/12/27 22:35:47;;;;;;;9.10;5.43;;;15.40;99.90;;;;;;5013581;28;20048;-72
2022/12/27 22:38:14;;;;;;;10.63;6.23;;;15.40;99.90;;;;;;5013471;28;20073;-71
2022/12/27 22:40:40;;;;;;;10.23;6.20;;;15.40;99.90;;;;;;5013618;28;20269;-72
2022/12/27 22:43:06;;;;;;;10.32;6.07;;;15.40;99.90;;;;;;5013875;28;20026;-71